Time;durP1;ratioP1;P1;durP2;ratioP2;P2;SDS_P1;SDS_P2;PMS_P1;PMS_P2;Temp;Humidity;BMP_temperature;BMP_pressure;BME280_temperature;BME280_humidity;BME280_pressure;Samples;Min_cycle;Max_cycle;Signal;HPM_P1;HPM_P2
2023/06/25 00:01:38;;;;;;;5.90;5.27;;;;;;;;;;5036092;28;20462;-76
2023/06/25 00:04:05;;;;;;;8.40;6.40;;;;;;;;;;5036210;28;20560;-76
2023/06/25 00:06:32;;;;;;;6.80;6.10;;;;;;;;;;5036126;28;20449;-76
2023/06/25 00:09:00;;;;;;;7.67;5.43;;;;;;;;;;5035939;28;20460;-76
2023/06/25 00:11:27;;;;;;;9.40;6.20;;;;;;;;;;5036064;28;20500;-76
2023/06/25 00:13:55;;;;;;;8.13;6.13;;;;;;;;;;5036170;28;20461;-76
2023/06/25 00:16:25;;;;;;;6.60;6.00;;;;;;;;;;5035992;28;21012;-76
2023/06/25 00:18:52;;;;;;;8.23;7.03;;;;;;;;;;5035899;28;20505;-76
2023/06/25 00:21:19;;;;;;;12.90;7.90;;;;;;;;;;5036185;28;21081;-76
2023/06/25 00:23:46;;;;;;;8.30;6.73;;;;;;;;;;5035916;28;20461;-76
2023/06/25 00:26:13;;;;;;;6.80;6.10;;;;;;;;;;5035113;28;20442;-76
2023/06/25 00:28:40;;;;;;;8.60;6.33;;;;;;;;;;5034798;28;20460;-76
2023/06/25 00:31:09;;;;;;;7.80;6.07;;;;;;;;;;5035745;28;20481;-76
2023/06/25 00:33:36;;;;;;;7.50;6.67;;;;;;;;;;5035754;28;20466;-76
2023/06/25 00:36:06;;;;;;;6.60;5.40;;;;;;;;;;5035597;28;20492;-76
2023/06/25 00:38:34;;;;;;;5.93;5.33;;;;;;;;;;5035521;28;20550;-76
2023/06/25 00:41:01;;;;;;;7.50;6.43;;;;;;;;;;5035729;28;20522;-76
2023/06/25 00:43:28;;;;;;;10.27;6.87;;;;;;;;;;5035518;28;20450;-76
2023/06/25 00:45:57;;;;;;;7.13;6.43;;;;;;;;;;5035807;28;20844;-76
2023/06/25 00:48:26;;;;;;;6.80;6.10;;;;;;;;;;5035248;28;20560;-76
2023/06/25 00:50:53;;;;;;;7.67;6.27;;;;;;;;;;5035449;28;20480;-76
2023/06/25 00:53:21;;;;;;;7.77;6.30;;;;;;;;;;5035350;28;20450;-76
2023/06/25 00:55:50;;;;;;;13.67;7.00;;;;;;;;;;5035392;28;20881;-76
2023/06/25 00:58:20;;;;;;;6.73;6.03;;;;;;;;;;5035082;28;20833;-76
2023/06/25 01:00:47;;;;;;;6.33;5.73;;;;;;;;;;5035439;28;20482;-76
2023/06/25 01:03:24;;;;;;;7.70;6.23;;;;;;;;;;5035186;28;20445;-76
2023/06/25 01:05:54;;;;;;;6.07;5.37;;;;;;;;;;5035129;28;20510;-76
2023/06/25 01:08:28;;;;;;;8.20;6.70;;;;;;;;;;5034815;28;20456;-77
2023/06/25 01:10:56;;;;;;;8.07;6.33;;;;;;;;;;5035110;28;20469;-76
2023/06/25 01:13:23;;;;;;;9.30;6.20;;;;;;;;;;5034919;28;20969;-76
2023/06/25 01:15:50;;;;;;;6.43;5.73;;;;;;;;;;5035008;28;20572;-76
2023/06/25 01:18:17;;;;;;;7.20;5.80;;;;;;;;;;5034728;28;20453;-76
2023/06/25 01:20:45;;;;;;;7.80;6.50;;;;;;;;;;5034749;28;20841;-76
2023/06/25 01:23:13;;;;;;;7.57;6.10;;;;;;;;;;5034791;28;20476;-76
2023/06/25 01:25:40;;;;;;;6.53;5.93;;;;;;;;;;5034663;28;20816;-76
2023/06/25 01:28:07;;;;;;;6.63;5.93;;;;;;;;;;5034545;28;20521;-76
2023/06/25 01:30:34;;;;;;;8.20;6.17;;;;;;;;;;5034079;28;20476;-77
2023/06/25 01:33:02;;;;;;;6.87;5.83;;;;;;;;;;5034772;28;20849;-76
2023/06/25 01:35:29;;;;;;;7.23;5.70;;;;;;;;;;5034556;28;20457;-76
2023/06/25 01:37:56;;;;;;;7.60;6.33;;;;;;;;;;5034048;28;20489;-76
2023/06/25 01:40:24;;;;;;;7.40;6.40;;;;;;;;;;5034296;28;20856;-76
2023/06/25 01:42:52;;;;;;;10.73;7.27;;;;;;;;;;5034416;28;20453;-76
2023/06/25 01:45:19;;;;;;;8.00;6.70;;;;;;;;;;5034272;28;20564;-76
2023/06/25 01:47:46;;;;;;;6.80;6.00;;;;;;;;;;5034157;28;20454;-76
2023/06/25 01:50:13;;;;;;;7.27;6.57;;;;;;;;;;5034309;28;20986;-76
2023/06/25 01:52:40;;;;;;;8.67;6.73;;;;;;;;;;5034364;28;20829;-76
2023/06/25 01:55:08;;;;;;;6.43;5.83;;;;;;;;;;5034224;28;20454;-76
2023/06/25 01:57:36;;;;;;;8.30;6.70;;;;;;;;;;5033951;28;20896;-76
2023/06/25 02:00:05;;;;;;;8.40;6.50;;;;;;;;;;5034145;28;20478;-77
2023/06/25 02:02:32;;;;;;;8.87;7.53;;;;;;;;;;5034169;28;20957;-76
2023/06/25 02:04:59;;;;;;;12.17;7.77;;;;;;;;;;5034216;28;20446;-76
2023/06/25 02:07:26;;;;;;;10.30;8.13;;;;;;;;;;5033844;28;20459;-76
2023/06/25 02:09:53;;;;;;;20.80;8.87;;;;;;;;;;5034037;28;20469;-76
2023/06/25 02:12:20;;;;;;;14.53;8.80;;;;;;;;;;5033712;28;20916;-77
2023/06/25 02:14:49;;;;;;;10.63;9.03;;;;;;;;;;5034129;28;20464;-76
2023/06/25 02:17:16;;;;;;;9.27;6.97;;;;;;;;;;5033555;28;20492;-76
2023/06/25 02:19:43;;;;;;;16.60;7.97;;;;;;;;;;5033573;28;21001;-76
2023/06/25 02:22:10;;;;;;;8.93;8.03;;;;;;;;;;5033546;28;20465;-76
2023/06/25 02:24:37;;;;;;;9.47;7.97;;;;;;;;;;5033642;28;20460;-76
2023/06/25 02:27:04;;;;;;;8.90;7.47;;;;;;;;;;5033330;28;20453;-77
2023/06/25 02:29:31;;;;;;;8.90;7.70;;;;;;;;;;5032816;28;20480;-76
2023/06/25 02:32:00;;;;;;;10.70;8.13;;;;;;;;;;5033601;28;20458;-76
2023/06/25 02:34:27;;;;;;;9.20;7.17;;;;;;;;;;5033345;28;20901;-76
2023/06/25 02:36:54;;;;;;;12.90;9.13;;;;;;;;;;5033231;28;20839;-76
2023/06/25 02:39:21;;;;;;;10.73;8.80;;;;;;;;;;5033415;28;20465;-76
2023/06/25 02:41:48;;;;;;;9.90;8.90;;;;;;;;;;5033227;28;20454;-76
2023/06/25 02:44:15;;;;;;;12.80;9.10;;;;;;;;;;5033203;28;20449;-76
2023/06/25 02:46:42;;;;;;;8.80;7.90;;;;;;;;;;5033405;28;20446;-77
2023/06/25 02:49:11;;;;;;;16.70;8.20;;;;;;;;;;5032905;28;20465;-76
2023/06/25 02:51:38;;;;;;;13.37;9.70;;;;;;;;;;5032916;28;20993;-76
2023/06/25 02:54:05;;;;;;;10.43;8.87;;;;;;;;;;5033273;28;20834;-76
2023/06/25 02:56:32;;;;;;;10.60;8.77;;;;;;;;;;5033006;28;20485;-76
2023/06/25 02:58:59;;;;;;;8.43;7.63;;;;;;;;;;5033094;28;20461;-76
2023/06/25 03:01:26;;;;;;;12.40;9.20;;;;;;;;;;5033033;28;20470;-76
2023/06/25 03:03:54;;;;;;;12.00;8.97;;;;;;;;;;5033126;28;20453;-76
2023/06/25 03:06:22;;;;;;;9.97;7.50;;;;;;;;;;5032991;28;20938;-76
2023/06/25 03:08:49;;;;;;;10.17;8.10;;;;;;;;;;5032965;28;20466;-76
2023/06/25 03:11:16;;;;;;;10.77;8.20;;;;;;;;;;5032856;28;20561;-76
2023/06/25 03:13:43;;;;;;;10.37;8.90;;;;;;;;;;5032255;28;20557;-76
2023/06/25 03:16:10;;;;;;;12.40;8.37;;;;;;;;;;5032359;28;20461;-76
2023/06/25 03:18:37;;;;;;;10.43;8.80;;;;;;;;;;5031775;28;20529;-76
2023/06/25 03:21:04;;;;;;;9.73;7.47;;;;;;;;;;5032113;28;20473;-76
2023/06/25 03:23:33;;;;;;;9.40;8.03;;;;;;;;;;5032653;28;20458;-76
2023/06/25 03:26:00;;;;;;;10.07;8.10;;;;;;;;;;5032726;28;20456;-77
2023/06/25 03:28:27;;;;;;;8.80;7.30;;;;;;;;;;5032305;28;20458;-76
2023/06/25 03:30:54;;;;;;;10.20;8.10;;;;;;;;;;5032490;28;20469;-77
2023/06/25 03:33:21;;;;;;;11.13;8.80;;;;;;;;;;5032793;28;20434;-77
2023/06/25 03:35:49;;;;;;;9.33;6.97;;;;;;;;;;5032909;28;20942;-77
2023/06/25 03:38:16;;;;;;;8.93;6.50;;;;;;;;;;5032441;28;20484;-77
2023/06/25 03:40:45;;;;;;;9.77;6.80;;;;;;;;;;5032726;28;20971;-77
2023/06/25 03:43:12;;;;;;;8.17;6.50;;;;;;;;;;5032911;28;20492;-77
2023/06/25 03:45:39;;;;;;;7.40;6.40;;;;;;;;;;5033007;28;20456;-77
2023/06/25 03:48:06;;;;;;;9.37;6.67;;;;;;;;;;5032638;28;20453;-77
2023/06/25 03:50:33;;;;;;;8.63;5.93;;;;;;;;;;5032809;28;20504;-77
2023/06/25 03:53:01;;;;;;;6.73;6.00;;;;;;;;;;5033242;28;20458;-76
2023/06/25 03:55:28;;;;;;;13.50;6.73;;;;;;;;;;5031992;28;20496;-76
2023/06/25 03:57:58;;;;;;;7.13;6.13;;;;;;;;;;5031964;28;20845;-76
2023/06/25 04:00:25;;;;;;;6.93;6.23;;;;;;;;;;5031830;28;20505;-76
2023/06/25 04:02:52;;;;;;;10.50;7.80;;;;;;;;;;5035369;28;20449;-76
2023/06/25 04:05:19;;;;;;;6.90;6.20;;;;;;;;;;5035602;28;20450;-76
2023/06/25 04:07:46;;;;;;;6.33;5.73;;;;;;;;;;5035496;28;20454;-76
2023/06/25 04:10:14;;;;;;;5.40;4.90;;;;;;;;;;5035545;28;20484;-77
2023/06/25 04:12:41;;;;;;;5.37;4.97;;;;;;;;;;5035741;28;20496;-77
2023/06/25 04:15:10;;;;;;;9.27;6.20;;;;;;;;;;5035727;28;20449;-76
2023/06/25 04:17:39;;;;;;;6.40;5.80;;;;;;;;;;5035136;28;20838;-77
2023/06/25 04:20:07;;;;;;;5.67;5.17;;;;;;;;;;5035471;28;20899;-77
2023/06/25 04:22:34;;;;;;;9.40;8.23;;;;;;;;;;5035295;28;20472;-76
2023/06/25 04:25:01;;;;;;;7.90;6.10;;;;;;;;;;5035412;28;20460;-76
2023/06/25 04:27:28;;;;;;;6.20;5.60;;;;;;;;;;5035142;28;20453;-76
2023/06/25 04:29:55;;;;;;;8.60;4.50;;;;;;;;;;5034979;28;20974;-77
2023/06/25 04:32:24;;;;;;;5.87;4.77;;;;;;;;;;5035556;28;20851;-77
2023/06/25 04:34:51;;;;;;;7.00;4.73;;;;;;;;;;5035927;28;20457;-77
2023/06/25 04:37:18;;;;;;;5.60;5.10;;;;;;;;;;5035760;28;20849;-76
2023/06/25 04:39:45;;;;;;;5.40;4.90;;;;;;;;;;5035286;28;20982;-76
2023/06/25 04:42:12;;;;;;;5.27;4.87;;;;;;;;;;5035119;28;20454;-77
2023/06/25 04:44:39;;;;;;;6.30;5.70;;;;;;;;;;5034976;28;20464;-76
2023/06/25 04:47:07;;;;;;;7.30;5.40;;;;;;;;;;5035186;28;20917;-76
2023/06/25 04:49:35;;;;;;;5.13;4.73;;;;;;;;;;5034871;28;21013;-76
2023/06/25 04:52:02;;;;;;;7.60;5.80;;;;;;;;;;5034875;28;20465;-76
2023/06/25 04:54:29;;;;;;;4.77;4.33;;;;;;;;;;5034714;28;20449;-76
2023/06/25 04:56:56;;;;;;;5.53;4.23;;;;;;;;;;5034440;28;20468;-76
2023/06/25 04:59:24;;;;;;;5.30;4.80;;;;;;;;;;5034519;28;20461;-77
2023/06/25 05:01:51;;;;;;;5.43;4.90;;;;;;;;;;5034701;28;20468;-77
2023/06/25 05:04:18;;;;;;;4.70;4.30;;;;;;;;;;5035710;28;20461;-78
2023/06/25 05:06:46;;;;;;;6.50;5.27;;;;;;;;;;5025318;28;20962;-77
2023/06/25 05:09:14;;;;;;;5.20;4.80;;;;;;;;;;5029149;28;20533;-77
2023/06/25 05:11:41;;;;;;;4.97;4.57;;;;;;;;;;5014598;28;20548;-77
2023/06/25 05:14:08;;;;;;;4.00;3.70;;;;;;;;;;5014586;28;20512;-77
2023/06/25 05:16:35;;;;;;;5.80;5.30;;;;;;;;;;5015163;28;20490;-77
2023/06/25 05:19:03;;;;;;;5.03;4.63;;;;;;;;;;5007667;28;20621;-76
2023/06/25 05:21:30;;;;;;;4.90;4.50;;;;;;;;;;4994459;28;20482;-77
2023/06/25 05:24:03;;;;;;;5.40;4.63;;;;;;;;;;4994803;28;20467;-76
2023/06/25 05:26:30;;;;;;;4.87;4.40;;;;;;;;;;4994496;28;20538;-77
2023/06/25 05:28:57;;;;;;;5.20;3.97;;;;;;;;;;4994292;28;20466;-77
2023/06/25 05:31:24;;;;;;;9.53;4.87;;;;;;;;;;4994501;28;20834;-77
2023/06/25 05:33:52;;;;;;;4.67;4.23;;;;;;;;;;4994936;28;20462;-76
2023/06/25 05:36:20;;;;;;;4.50;4.20;;;;;;;;;;4994218;28;20451;-76
2023/06/25 05:38:47;;;;;;;9.33;4.00;;;;;;;;;;4994597;28;21087;-77
2023/06/25 05:41:16;;;;;;;4.10;3.80;;;;;;;;;;4994804;28;20475;-78
2023/06/25 05:43:43;;;;;;;5.27;4.87;;;;;;;;;;4995020;28;20455;-75
2023/06/25 05:46:11;;;;;;;4.83;4.43;;;;;;;;;;4994671;28;20458;-77
2023/06/25 05:48:39;;;;;;;5.67;4.03;;;;;;;;;;4994236;28;20530;-77
2023/06/25 05:51:06;;;;;;;4.27;3.87;;;;;;;;;;4994614;28;20483;-78
2023/06/25 05:53:39;;;;;;;4.30;4.00;;;;;;;;;;4994577;28;20882;-77
2023/06/25 05:56:06;;;;;;;4.33;3.93;;;;;;;;;;4994630;28;20455;-77
2023/06/25 05:58:35;;;;;;;4.77;4.27;;;;;;;;;;4994191;28;20889;-77
2023/06/25 06:01:02;;;;;;;6.27;5.00;;;;;;;;;;4994694;28;20494;-77
2023/06/25 06:03:29;;;;;;;4.77;4.37;;;;;;;;;;4995164;28;20454;-77
2023/06/25 06:05:57;;;;;;;6.63;4.80;;;;;;;;;;5014099;28;20461;-77
2023/06/25 06:08:24;;;;;;;3.97;3.67;;;;;;;;;;5013621;28;20446;-76
2023/06/25 06:10:52;;;;;;;5.17;4.77;;;;;;;;;;5013973;28;20962;-76
2023/06/25 06:13:19;;;;;;;4.77;4.37;;;;;;;;;;5013393;28;20218;-76
2023/06/25 06:15:48;;;;;;;4.13;3.83;;;;;;;;;;5013497;28;20218;-76
2023/06/25 06:18:15;;;;;;;4.43;4.03;;;;;;;;;;5013513;28;20718;-76
2023/06/25 06:20:43;;;;;;;6.03;5.53;;;;;;;;;;5015996;28;20242;-77
2023/06/25 06:23:11;;;;;;;6.33;3.93;;;;;;;;;;5015255;28;20253;-75
2023/06/25 06:25:39;;;;;;;5.17;4.40;;;;;;;;;;5013975;28;20229;-76
2023/06/25 06:28:06;;;;;;;5.57;5.07;;;;;;;;;;5014500;28;20207;-77
2023/06/25 06:30:33;;;;;;;4.87;4.47;;;;;;;;;;5013827;28;20284;-78
2023/06/25 06:33:01;;;;;;;4.90;4.50;;;;;;;;;;5015151;28;20616;-78
2023/06/25 06:35:28;;;;;;;8.70;4.50;;;;;;;;;;5014373;28;20215;-77
2023/06/25 06:37:56;;;;;;;4.90;4.50;;;;;;;;;;5014675;28;20597;-77
2023/06/25 06:40:23;;;;;;;5.10;4.60;;;;;;;;;;5002271;28;20704;-78
2023/06/25 06:42:50;;;;;;;5.43;4.93;;;;;;;;;;5013182;28;20226;-77
2023/06/25 06:45:17;;;;;;;4.33;3.93;;;;;;;;;;5011367;28;20882;-77
2023/06/25 06:47:45;;;;;;;4.87;4.43;;;;;;;;;;5011763;28;20446;-77
2023/06/25 06:50:13;;;;;;;4.53;3.90;;;;;;;;;;5011650;28;20505;-78
2023/06/25 06:52:44;;;;;;;5.63;5.03;;;;;;;;;;5011901;28;20457;-76
2023/06/25 06:55:11;;;;;;;5.57;5.00;;;;;;;;;;5011919;28;20573;-76
2023/06/25 06:57:38;;;;;;;5.30;4.60;;;;;;;;;;5011570;28;20524;-78
2023/06/25 07:00:06;;;;;;;5.33;4.80;;;;;;;;;;5012135;28;20847;-78
2023/06/25 07:02:33;;;;;;;4.60;4.13;;;;;;;;;;5012954;28;20457;-78
2023/06/25 07:05:00;;;;;;;6.63;4.23;;;;;;;;;;5012620;28;20954;-77
2023/06/25 07:07:28;;;;;;;5.70;5.17;;;;;;;;;;5013311;28;20821;-77
2023/06/25 07:09:56;;;;;;;5.40;4.90;;;;;;;;;;5013281;28;20477;-77
2023/06/25 07:12:23;;;;;;;5.47;4.97;;;;;;;;;;5013039;28;20454;-77
2023/06/25 07:14:50;;;;;;;8.77;4.97;;;;;;;;;;5013572;28;20949;-77
2023/06/25 07:17:17;;;;;;;5.50;5.07;;;;;;;;;;5013624;28;20458;-77
2023/06/25 07:19:45;;;;;;;6.23;5.70;;;;;;;;;;5014750;28;20526;-77
2023/06/25 07:22:12;;;;;;;5.70;4.87;;;;;;;;;;5013260;28;20501;-78
2023/06/25 07:24:40;;;;;;;5.57;5.07;;;;;;;;;;5013311;28;20457;-77
2023/06/25 07:27:07;;;;;;;6.90;5.80;;;;;;;;;;5013342;28;20481;-77
2023/06/25 07:29:35;;;;;;;6.50;6.00;;;;;;;;;;5012877;28;20450;-77
2023/06/25 07:32:02;;;;;;;5.53;4.97;;;;;;;;;;5013212;28;20464;-77
2023/06/25 07:34:29;;;;;;;5.83;5.27;;;;;;;;;;5013028;28;20461;-78
2023/06/25 07:36:56;;;;;;;6.10;5.00;;;;;;;;;;5015384;28;20446;-77
2023/06/25 07:39:29;;;;;;;8.90;6.10;;;;;;;;;;5015896;28;20576;-76
2023/06/25 07:41:57;;;;;;;6.80;6.17;;;;;;;;;;5016412;28;20533;-76
2023/06/25 07:44:24;;;;;;;5.63;5.23;;;;;;;;;;5014619;28;20465;-77
2023/06/25 07:46:52;;;;;;;6.00;5.50;;;;;;;;;;5014014;28;20879;-75
2023/06/25 07:49:19;;;;;;;6.53;6.00;;;;;;;;;;5015936;28;20458;-76
2023/06/25 07:51:49;;;;;;;7.67;5.60;;;;;;;;;;5015830;28;20933;-76
2023/06/25 07:54:16;;;;;;;6.23;5.73;;;;;;;;;;5016310;28;20457;-76
2023/06/25 07:56:44;;;;;;;6.47;5.90;;;;;;;;;;5015873;28;20454;-76
2023/06/25 07:59:12;;;;;;;7.53;6.80;;;;;;;;;;5015769;28;20497;-76
2023/06/25 08:01:39;;;;;;;6.07;5.50;;;;;;;;;;5015514;28;20476;-75
2023/06/25 08:04:07;;;;;;;6.17;5.60;;;;;;;;;;5015974;28;20834;-76
2023/06/25 08:06:34;;;;;;;6.10;5.50;;;;;;;;;;5015851;28;20469;-76
2023/06/25 08:09:01;;;;;;;9.50;5.87;;;;;;;;;;5015805;28;20534;-76
2023/06/25 08:11:28;;;;;;;6.20;5.60;;;;;;;;;;5016067;28;21021;-76
2023/06/25 08:13:55;;;;;;;6.07;5.50;;;;;;;;;;5015887;28;20462;-76
2023/06/25 08:16:24;;;;;;;9.03;5.70;;;;;;;;;;5015753;28;20458;-76
2023/06/25 08:18:51;;;;;;;6.57;5.90;;;;;;;;;;5015601;28;20493;-76
2023/06/25 08:21:18;;;;;;;7.30;6.60;;;;;;;;;;5015624;28;20481;-76
2023/06/25 08:23:45;;;;;;;6.13;5.23;;;;;;;;;;5015325;28;20461;-76
2023/06/25 08:26:12;;;;;;;6.83;5.70;;;;;;;;;;5015601;28;20453;-76
2023/06/25 08:28:40;;;;;;;7.33;6.67;;;;;;;;;;5014660;28;20540;-76
2023/06/25 08:31:07;;;;;;;8.17;6.87;;;;;;;;;;5015455;28;20512;-76
2023/06/25 08:33:36;;;;;;;6.90;6.30;;;;;;;;;;5014983;28;20458;-76
2023/06/25 08:36:03;;;;;;;7.13;6.43;;;;;;;;;;5015342;28;20457;-76
2023/06/25 08:38:31;;;;;;;6.97;6.37;;;;;;;;;;5015261;28;20998;-76
2023/06/25 08:40:59;;;;;;;7.13;6.40;;;;;;;;;;5015365;28;20564;-76
2023/06/25 08:43:26;;;;;;;9.70;6.87;;;;;;;;;;5015227;28;20451;-75
2023/06/25 08:45:53;;;;;;;8.07;6.70;;;;;;;;;;5015156;28;20490;-75
2023/06/25 08:48:21;;;;;;;7.13;6.50;;;;;;;;;;5013942;28;20451;-75
2023/06/25 08:50:52;;;;;;;7.50;6.90;;;;;;;;;;5015047;28;20469;-76
2023/06/25 08:53:19;;;;;;;7.23;6.63;;;;;;;;;;5015261;28;20454;-76
2023/06/25 08:55:48;;;;;;;7.00;6.30;;;;;;;;;;5014904;28;20977;-75
2023/06/25 08:58:15;;;;;;;9.10;6.00;;;;;;;;;;5014963;28;20477;-76
2023/06/25 09:00:42;;;;;;;7.77;7.07;;;;;;;;;;5014868;28;21029;-76
2023/06/25 09:03:09;;;;;;;6.70;6.20;;;;;;;;;;5014895;28;20470;-76
2023/06/25 09:05:36;;;;;;;9.10;6.27;;;;;;;;;;5014835;28;20830;-76
2023/06/25 09:08:05;;;;;;;6.30;5.70;;;;;;;;;;5014857;28;20454;-76
2023/06/25 09:10:33;;;;;;;7.83;7.03;;;;;;;;;;5014655;28;20503;-76
2023/06/25 09:13:02;;;;;;;7.73;7.03;;;;;;;;;;5014795;28;20501;-75
2023/06/25 09:15:30;;;;;;;8.13;7.43;;;;;;;;;;5014675;28;20455;-76
2023/06/25 09:17:57;;;;;;;7.77;7.07;;;;;;;;;;5014507;28;20469;-76
2023/06/25 09:20:25;;;;;;;8.87;8.00;;;;;;;;;;5014686;28;20553;-76
2023/06/25 09:22:53;;;;;;;7.77;7.07;;;;;;;;;;5014454;28;20470;-76
2023/06/25 09:25:22;;;;;;;7.20;6.60;;;;;;;;;;5014542;28;20461;-76
2023/06/25 09:27:49;;;;;;;6.30;5.70;;;;;;;;;;5014498;28;20907;-76
2023/06/25 09:30:18;;;;;;;7.77;7.00;;;;;;;;;;5013760;28;20475;-76
2023/06/25 09:32:51;;;;;;;8.40;6.83;;;;;;;;;;5014631;28;20522;-75
2023/06/25 09:35:22;;;;;;;8.17;7.47;;;;;;;;;;5014223;28;20457;-76
2023/06/25 09:37:51;;;;;;;7.13;6.23;;;;;;;;;;5014241;28;20462;-76
2023/06/25 09:40:18;;;;;;;8.00;6.00;;;;;;;;;;5013906;28;20526;-76
2023/06/25 09:42:48;;;;;;;8.30;6.50;;;;;;;;;;5014171;28;20458;-75
2023/06/25 09:45:16;;;;;;;6.63;6.10;;;;;;;;;;5014417;28;20833;-76
2023/06/25 09:47:44;;;;;;;8.07;7.37;;;;;;;;;;5013398;28;20812;-76
2023/06/25 09:50:14;;;;;;;6.50;5.80;;;;;;;;;;5013828;28;20540;-76
2023/06/25 09:52:42;;;;;;;7.73;7.03;;;;;;;;;;5013816;28;20800;-76
2023/06/25 09:55:10;;;;;;;7.17;6.47;;;;;;;;;;5013899;28;20483;-76
2023/06/25 09:57:37;;;;;;;6.63;6.00;;;;;;;;;;5013832;28;20462;-76
2023/06/25 10:00:06;;;;;;;7.50;6.70;;;;;;;;;;5013654;28;20494;-76
2023/06/25 10:02:33;;;;;;;7.83;7.13;;;;;;;;;;5013691;28;20490;-76
2023/06/25 10:05:00;;;;;;;7.03;6.43;;;;;;;;;;5014058;28;20510;-75
2023/06/25 10:07:28;;;;;;;8.50;7.10;;;;;;;;;;5013416;28;20458;-76
2023/06/25 10:09:55;;;;;;;8.40;6.30;;;;;;;;;;5013766;28;20557;-76
2023/06/25 10:12:22;;;;;;;6.80;6.10;;;;;;;;;;5013502;28;20462;-77
2023/06/25 10:14:50;;;;;;;5.97;5.37;;;;;;;;;;5013567;28;20908;-76
2023/06/25 10:17:21;;;;;;;7.77;7.00;;;;;;;;;;5013533;28;20545;-76
2023/06/25 10:19:52;;;;;;;8.13;7.33;;;;;;;;;;5013309;28;20518;-76
2023/06/25 10:22:23;;;;;;;7.80;7.20;;;;;;;;;;5013346;28;20509;-76
2023/06/25 10:24:50;;;;;;;9.97;7.37;;;;;;;;;;5013414;28;20459;-76
2023/06/25 10:27:22;;;;;;;6.27;5.70;;;;;;;;;;5013257;28;20455;-76
2023/06/25 10:29:49;;;;;;;5.67;5.17;;;;;;;;;;5012851;28;20474;-76
2023/06/25 10:32:20;;;;;;;5.50;5.00;;;;;;;;;;5012995;28;20466;-76
2023/06/25 10:34:53;;;;;;;5.83;5.33;;;;;;;;;;5012866;28;20463;-76
2023/06/25 10:37:20;;;;;;;6.97;6.33;;;;;;;;;;5003162;28;20470;-76
2023/06/25 10:39:47;;;;;;;6.27;5.43;;;;;;;;;;5013193;28;20855;-76
2023/06/25 10:42:15;;;;;;;12.43;7.13;;;;;;;;;;5013211;28;20512;-76
2023/06/25 10:44:42;;;;;;;7.40;6.70;;;;;;;;;;4999781;28;20458;-76
2023/06/25 10:47:10;;;;;;;5.80;5.30;;;;;;;;;;5005959;28;20465;-75
2023/06/25 10:49:38;;;;;;;6.10;5.50;;;;;;;;;;5001320;28;20482;-76
2023/06/25 10:52:07;;;;;;;6.60;6.10;;;;;;;;;;5003927;28;21005;-76
2023/06/25 10:54:34;;;;;;;6.90;6.30;;;;;;;;;;5007135;28;20451;-77
2023/06/25 10:57:08;;;;;;;6.67;5.70;;;;;;;;;;4993262;28;20428;-76
2023/06/25 10:59:35;;;;;;;7.10;6.40;;;;;;;;;;4993252;28;20503;-76
2023/06/25 11:02:13;;;;;;;7.50;6.77;;;;;;;;;;4993190;28;20578;-76
2023/06/25 11:04:41;;;;;;;7.83;7.13;;;;;;;;;;4993119;28;20455;-76
2023/06/25 11:07:09;;;;;;;6.57;5.93;;;;;;;;;;4993295;28;20452;-76
2023/06/25 11:09:36;;;;;;;6.90;6.30;;;;;;;;;;4993222;28;20503;-76
2023/06/25 11:12:06;;;;;;;7.00;6.30;;;;;;;;;;4992553;28;20456;-76
2023/06/25 11:14:34;;;;;;;7.00;6.40;;;;;;;;;;4993499;28;20941;-75
2023/06/25 11:17:01;;;;;;;6.20;5.60;;;;;;;;;;5006115;28;20455;-75
2023/06/25 11:19:30;;;;;;;6.03;5.53;;;;;;;;;;5006661;28;20988;-76
2023/06/25 11:21:58;;;;;;;7.00;6.33;;;;;;;;;;4995037;28;20460;-76
2023/06/25 11:24:26;;;;;;;6.23;5.73;;;;;;;;;;4992668;28;20797;-76
2023/06/25 11:26:57;;;;;;;7.40;6.17;;;;;;;;;;4992624;28;20460;-78
2023/06/25 11:29:27;;;;;;;8.90;6.67;;;;;;;;;;4992698;28;20448;-76
2023/06/25 11:31:54;;;;;;;6.63;6.03;;;;;;;;;;4992909;28;20808;-76
2023/06/25 11:34:22;;;;;;;6.17;5.57;;;;;;;;;;4997498;28;20956;-76
2023/06/25 11:36:49;;;;;;;6.63;6.03;;;;;;;;;;5011221;28;20494;-77
2023/06/25 11:39:18;;;;;;;6.57;6.07;;;;;;;;;;5004053;28;20460;-77
2023/06/25 11:41:46;;;;;;;7.00;6.40;;;;;;;;;;4992992;28;20860;-76
2023/06/25 11:44:19;;;;;;;6.50;5.90;;;;;;;;;;4992213;28;20451;-77
2023/06/25 11:46:47;;;;;;;6.97;6.37;;;;;;;;;;5007929;28;20450;-77
2023/06/25 11:49:14;;;;;;;8.43;6.00;;;;;;;;;;5012477;28;20828;-76
2023/06/25 11:51:41;;;;;;;7.97;6.30;;;;;;;;;;5012118;28;20523;-76
2023/06/25 11:54:08;;;;;;;8.60;6.93;;;;;;;;;;5012010;28;20455;-76
2023/06/25 11:56:36;;;;;;;5.40;4.90;;;;;;;;;;5011842;28;20835;-75
2023/06/25 11:59:04;;;;;;;6.47;5.47;;;;;;;;;;5010963;28;20462;-76
2023/06/25 12:01:31;;;;;;;6.00;5.40;;;;;;;;;;5012669;28;20497;-76
2023/06/25 12:03:58;;;;;;;7.70;6.23;;;;;;;;;;5011910;28;20462;-76
2023/06/25 12:06:26;;;;;;;6.53;5.83;;;;;;;;;;5011666;28;20474;-76
2023/06/25 12:08:53;;;;;;;5.90;5.30;;;;;;;;;;5012074;28;20455;-76
2023/06/25 12:11:20;;;;;;;5.37;4.87;;;;;;;;;;5012248;28;20479;-76
2023/06/25 12:13:49;;;;;;;8.20;5.70;;;;;;;;;;5012044;28;20457;-75
2023/06/25 12:16:16;;;;;;;6.03;5.43;;;;;;;;;;5011580;28;20455;-76
2023/06/25 12:18:43;;;;;;;9.03;6.00;;;;;;;;;;5019584;28;20465;-76
2023/06/25 12:21:10;;;;;;;6.53;5.90;;;;;;;;;;5013592;28;20494;-76
2023/06/25 12:23:47;;;;;;;7.20;6.03;;;;;;;;;;5013733;28;20459;-76
2023/06/25 12:26:14;;;;;;;6.70;5.63;;;;;;;;;;5015704;28;20523;-76
2023/06/25 12:28:41;;;;;;;9.67;6.00;;;;;;;;;;5015125;28;20462;-76
2023/06/25 12:31:09;;;;;;;6.03;5.53;;;;;;;;;;5015308;28;21031;-75
2023/06/25 12:33:37;;;;;;;11.70;5.63;;;;;;;;;;5015261;28;20435;-76
2023/06/25 12:36:04;;;;;;;8.73;5.47;;;;;;;;;;5015732;28;20455;-76
2023/06/25 12:38:31;;;;;;;6.10;5.40;;;;;;;;;;5015278;28;20462;-75
2023/06/25 12:40:58;;;;;;;6.20;5.47;;;;;;;;;;5014581;28;20490;-76
2023/06/25 12:43:26;;;;;;;5.90;5.40;;;;;;;;;;5015173;28;20459;-76
2023/06/25 12:45:53;;;;;;;5.67;5.17;;;;;;;;;;5015138;28;20455;-76
2023/06/25 12:48:21;;;;;;;5.77;5.17;;;;;;;;;;5014981;28;20774;-76
2023/06/25 12:50:48;;;;;;;5.73;4.93;;;;;;;;;;5015111;28;20474;-75
2023/06/25 12:53:16;;;;;;;6.07;5.47;;;;;;;;;;5014968;28;20455;-75
2023/06/25 12:55:43;;;;;;;7.37;5.50;;;;;;;;;;5015174;28;20458;-76
2023/06/25 12:58:10;;;;;;;6.50;5.30;;;;;;;;;;5014623;28;20462;-75
2023/06/25 13:00:37;;;;;;;5.00;4.50;;;;;;;;;;5012908;28;20494;-76
2023/06/25 13:03:04;;;;;;;6.20;5.53;;;;;;;;;;5014378;28;20470;-76
2023/06/25 13:05:33;;;;;;;6.80;5.30;;;;;;;;;;5014927;28;20511;-76
2023/06/25 13:08:00;;;;;;;5.63;5.13;;;;;;;;;;5014860;28;20461;-76
2023/06/25 13:10:27;;;;;;;5.33;4.67;;;;;;;;;;5014331;28;20474;-78
2023/06/25 13:12:54;;;;;;;5.33;4.83;;;;;;;;;;5005964;28;20477;-76
2023/06/25 13:15:21;;;;;;;6.03;4.67;;;;;;;;;;5014822;28;20465;-75
2023/06/25 13:17:48;;;;;;;5.20;4.70;;;;;;;;;;5015931;28;20474;-76
2023/06/25 13:20:15;;;;;;;6.73;5.40;;;;;;;;;;5014026;28;20490;-76
2023/06/25 13:22:44;;;;;;;5.00;4.50;;;;;;;;;;5013931;28;20469;-75
2023/06/25 13:25:11;;;;;;;6.20;5.07;;;;;;;;;;5014686;28;20461;-76
2023/06/25 13:27:38;;;;;;;5.00;4.50;;;;;;;;;;5014346;28;20450;-75
2023/06/25 13:30:06;;;;;;;5.43;4.87;;;;;;;;;;5014337;28;20474;-75
2023/06/25 13:32:33;;;;;;;5.43;4.63;;;;;;;;;;5014351;28;20463;-76
2023/06/25 13:35:00;;;;;;;11.73;5.30;;;;;;;;;;5006653;28;20459;-76
2023/06/25 13:37:27;;;;;;;5.20;4.70;;;;;;;;;;5004493;28;20467;-76
2023/06/25 13:39:55;;;;;;;5.03;4.33;;;;;;;;;;5011229;28;20860;-76
2023/06/25 13:42:23;;;;;;;5.00;4.50;;;;;;;;;;4997507;28;20454;-76
2023/06/25 13:44:50;;;;;;;7.30;4.90;;;;;;;;;;4994830;28;20455;-76
2023/06/25 13:47:17;;;;;;;6.70;5.60;;;;;;;;;;4994567;28;20448;-76
2023/06/25 13:49:44;;;;;;;8.70;4.97;;;;;;;;;;5008494;28;20474;-76
2023/06/25 13:52:11;;;;;;;4.93;4.30;;;;;;;;;;5018145;28;20449;-76
2023/06/25 13:54:38;;;;;;;5.80;5.07;;;;;;;;;;5012627;28;20465;-76
2023/06/25 13:57:07;;;;;;;5.23;4.73;;;;;;;;;;5010724;28;20970;-76
2023/06/25 13:59:34;;;;;;;5.80;5.20;;;;;;;;;;5013865;28;20550;-76
2023/06/25 14:05:05;;;;;;;4.60;4.20;;;;;;;;;;5009663;28;20488;-76
2023/06/25 14:07:32;;;;;;;4.90;4.40;;;;;;;;;;5009539;28;20574;-76
2023/06/25 14:09:59;;;;;;;5.77;5.20;;;;;;;;;;5008599;28;20840;-76
2023/06/25 14:12:28;;;;;;;6.10;5.50;;;;;;;;;;5014433;28;20455;-76
2023/06/25 14:14:55;;;;;;;5.90;4.30;;;;;;;;;;5011968;28;20836;-77
2023/06/25 14:17:22;;;;;;;7.00;5.83;;;;;;;;;;5010261;28;20465;-76
2023/06/25 14:19:50;;;;;;;5.67;5.10;;;;;;;;;;5011771;28;21014;-76
2023/06/25 14:22:17;;;;;;;10.80;5.23;;;;;;;;;;5008311;28;20458;-75
2023/06/25 14:24:44;;;;;;;6.20;5.27;;;;;;;;;;5003399;28;20463;-75
2023/06/25 14:27:11;;;;;;;6.50;4.77;;;;;;;;;;5005981;28;20474;-76
2023/06/25 14:29:40;;;;;;;5.60;4.33;;;;;;;;;;5004129;28;21021;-76
2023/06/25 14:32:07;;;;;;;5.50;4.90;;;;;;;;;;5008119;28;20458;-77
2023/06/25 14:34:34;;;;;;;4.57;3.93;;;;;;;;;;5001869;28;20448;-76
2023/06/25 14:37:02;;;;;;;6.17;5.57;;;;;;;;;;5006454;28;20466;-76
2023/06/25 14:39:29;;;;;;;6.90;6.20;;;;;;;;;;5003904;28;20483;-77
2023/06/25 14:41:56;;;;;;;6.30;5.40;;;;;;;;;;5007250;28;20542;-78
2023/06/25 14:44:23;;;;;;;5.67;4.40;;;;;;;;;;5004241;28;20467;-77
2023/06/25 14:46:52;;;;;;;6.00;5.07;;;;;;;;;;5001926;28;20459;-76